sensor_id;sensor_type;location;lat;lon;timestamp;pressure;altitude;pressure_sealevel;temperature;humidity
3132;BME280;62090;52.330;9.104;2023-04-09T00:01:42;102153.53;;;7.51;93.85
3132;BME280;62090;52.330;9.104;2023-04-09T00:04:15;102138.66;;;7.43;94.05
3132;BME280;62090;52.330;9.104;2023-04-09T00:06:45;102160.91;;;7.61;93.94
3132;BME280;62090;52.330;9.104;2023-04-09T00:09:17;102158.81;;;7.69;91.93
3132;BME280;62090;52.330;9.104;2023-04-09T00:11:47;102100.97;;;7.34;92.12
3132;BME280;62090;52.330;9.104;2023-04-09T00:14:17;102138.63;;;7.56;93.01
3132;BME280;62090;52.330;9.104;2023-04-09T00:16:47;102156.81;;;7.63;93.46
3132;BME280;62090;52.330;9.104;2023-04-09T00:19:17;102159.53;;;7.67;93.12
3132;BME280;62090;52.330;9.104;2023-04-09T00:21:47;102145.63;;;7.60;94.11
3132;BME280;62090;52.330;9.104;2023-04-09T00:24:19;102117.84;;;7.48;94.48
3132;BME280;62090;52.330;9.104;2023-04-09T00:26:49;102149.91;;;7.61;93.74
3132;BME280;62090;52.330;9.104;2023-04-09T00:29:19;102140.06;;;7.52;94.08
3132;BME280;62090;52.330;9.104;2023-04-09T00:31:49;102003.00;;;6.64;94.55
3132;BME280;62090;52.330;9.104;2023-04-09T00:34:19;102136.72;;;7.39;94.90
3132;BME280;62090;52.330;9.104;2023-04-09T00:36:48;102106.09;;;7.21;94.66
3132;BME280;62090;52.330;9.104;2023-04-09T00:39:21;102118.50;;;7.31;94.14
3132;BME280;62090;52.330;9.104;2023-04-09T00:41:55;102125.19;;;7.29;94.01
3132;BME280;62090;52.330;9.104;2023-04-09T00:44:25;102141.06;;;7.27;94.49
3132;BME280;62090;52.330;9.104;2023-04-09T00:46:58;102136.69;;;7.24;94.16
3132;BME280;62090;52.330;9.104;2023-04-09T00:49:29;102106.31;;;7.11;93.33
3132;BME280;62090;52.330;9.104;2023-04-09T00:51:59;102136.69;;;7.24;93.32
3132;BME280;62090;52.330;9.104;2023-04-09T00:54:31;102121.69;;;7.14;93.27
3132;BME280;62090;52.330;9.104;2023-04-09T00:57:02;102124.78;;;7.08;94.36
3132;BME280;62090;52.330;9.104;2023-04-09T00:59:32;102064.22;;;6.72;94.20
3132;BME280;62090;52.330;9.104;2023-04-09T01:02:02;102137.72;;;7.13;94.17
3132;BME280;62090;52.330;9.104;2023-04-09T01:04:32;102118.34;;;7.00;94.06
3132;BME280;62090;52.330;9.104;2023-04-09T01:07:10;102129.47;;;7.02;94.39
3132;BME280;62090;52.330;9.104;2023-04-09T01:09:49;102126.56;;;6.83;94.48
3132;BME280;62090;52.330;9.104;2023-04-09T01:12:25;102105.47;;;6.69;94.89
3132;BME280;62090;52.330;9.104;2023-04-09T01:15:03;102105.56;;;6.71;94.82
3132;BME280;62090;52.330;9.104;2023-04-09T01:17:38;102112.56;;;6.75;94.55
3132;BME280;62090;52.330;9.104;2023-04-09T01:20:13;102119.66;;;6.81;94.54
3132;BME280;62090;52.330;9.104;2023-04-09T01:22:56;102118.91;;;6.82;95.16
3132;BME280;62090;52.330;9.104;2023-04-09T01:25:43;102123.97;;;6.82;95.35
3132;BME280;62090;52.330;9.104;2023-04-09T01:28:18;102115.28;;;6.78;95.30
3132;BME280;62090;52.330;9.104;2023-04-09T01:30:53;102091.75;;;6.66;95.05
3132;BME280;62090;52.330;9.104;2023-04-09T01:33:26;102121.78;;;6.88;95.02
3132;BME280;62090;52.330;9.104;2023-04-09T01:35:59;102109.72;;;6.84;94.99
3132;BME280;62090;52.330;9.104;2023-04-09T01:38:30;102127.44;;;6.97;94.56
3132;BME280;62090;52.330;9.104;2023-04-09T01:41:02;102101.16;;;6.82;94.91
3132;BME280;62090;52.330;9.104;2023-04-09T01:43:36;102125.41;;;6.91;94.65
3132;BME280;62090;52.330;9.104;2023-04-09T01:46:07;102105.84;;;6.75;94.78
3132;BME280;62090;52.330;9.104;2023-04-09T01:48:38;102122.38;;;6.84;94.63
3132;BME280;62090;52.330;9.104;2023-04-09T01:51:08;102070.94;;;6.44;94.87
3132;BME280;62090;52.330;9.104;2023-04-09T01:53:40;102130.69;;;6.81;95.56
3132;BME280;62090;52.330;9.104;2023-04-09T01:56:10;102080.84;;;6.54;94.45
3132;BME280;62090;52.330;9.104;2023-04-09T01:58:42;102088.63;;;6.57;92.99
3132;BME280;62090;52.330;9.104;2023-04-09T02:01:15;102113.66;;;6.52;93.40
3132;BME280;62090;52.330;9.104;2023-04-09T02:03:53;102044.66;;;6.15;93.03
3132;BME280;62090;52.330;9.104;2023-04-09T02:06:31;102127.28;;;6.67;92.64
3132;BME280;62090;52.330;9.104;2023-04-09T02:09:06;102124.19;;;6.58;94.71
3132;BME280;62090;52.330;9.104;2023-04-09T02:11:38;102043.78;;;6.15;93.92
3132;BME280;62090;52.330;9.104;2023-04-09T02:14:12;102126.41;;;6.67;94.40
3132;BME280;62090;52.330;9.104;2023-04-09T02:16:42;102119.50;;;6.64;94.40
3132;BME280;62090;52.330;9.104;2023-04-09T02:19:12;102105.13;;;6.50;94.25
3132;BME280;62090;52.330;9.104;2023-04-09T02:21:42;102128.06;;;6.66;93.66
3132;BME280;62090;52.330;9.104;2023-04-09T02:24:12;102122.41;;;6.57;92.56
3132;BME280;62090;52.330;9.104;2023-04-09T02:26:42;102093.13;;;6.34;91.74
3132;BME280;62090;52.330;9.104;2023-04-09T02:29:14;102124.38;;;6.48;91.64
3132;BME280;62090;52.330;9.104;2023-04-09T02:31:44;102096.94;;;6.28;91.08
3132;BME280;62090;52.330;9.104;2023-04-09T02:34:16;102104.53;;;6.15;91.01
3132;BME280;62090;52.330;9.104;2023-04-09T02:36:47;102038.00;;;5.78;91.78
3132;BME280;62090;52.330;9.104;2023-04-09T02:39:17;102117.41;;;6.18;90.08
3132;BME280;62090;52.330;9.104;2023-04-09T02:41:46;102090.72;;;5.97;90.36
3132;BME280;62090;52.330;9.104;2023-04-09T02:44:19;102104.81;;;6.06;90.67
3132;BME280;62090;52.330;9.104;2023-04-09T02:46:49;102103.66;;;6.01;90.86
3132;BME280;62090;52.330;9.104;2023-04-09T02:49:19;102113.28;;;6.07;91.25
3132;BME280;62090;52.330;9.104;2023-04-09T02:51:49;102086.78;;;5.88;91.79
3132;BME280;62090;52.330;9.104;2023-04-09T02:54:19;102114.38;;;5.97;92.15
3132;BME280;62090;52.330;9.104;2023-04-09T02:56:49;102091.00;;;5.76;92.82
3132;BME280;62090;52.330;9.104;2023-04-09T02:59:21;102110.88;;;5.83;92.80
3132;BME280;62090;52.330;9.104;2023-04-09T03:01:51;102078.72;;;5.56;94.03
3132;BME280;62090;52.330;9.104;2023-04-09T03:04:21;102048.97;;;5.39;95.33
3132;BME280;62090;52.330;9.104;2023-04-09T03:06:51;102105.81;;;5.70;94.21
3132;BME280;62090;52.330;9.104;2023-04-09T03:09:21;102120.19;;;5.71;95.19
3132;BME280;62090;52.330;9.104;2023-04-09T03:11:50;102103.47;;;5.73;95.90
3132;BME280;62090;52.330;9.104;2023-04-09T03:14:24;102083.53;;;5.65;96.91
3132;BME280;62090;52.330;9.104;2023-04-09T03:16:54;102078.38;;;5.63;96.44
3132;BME280;62090;52.330;9.104;2023-04-09T03:19:24;102045.56;;;5.51;96.98
3132;BME280;62090;52.330;9.104;2023-04-09T03:21:54;102094.94;;;5.84;97.14
3132;BME280;62090;52.330;9.104;2023-04-09T03:24:26;102079.25;;;5.77;96.44
3132;BME280;62090;52.330;9.104;2023-04-09T03:26:59;102081.47;;;5.72;97.10
3132;BME280;62090;52.330;9.104;2023-04-09T03:29:33;102091.34;;;5.81;97.24
3132;BME280;62090;52.330;9.104;2023-04-09T03:32:04;102063.19;;;5.76;97.20
3132;BME280;62090;52.330;9.104;2023-04-09T03:34:34;102079.44;;;5.91;97.40
3132;BME280;62090;52.330;9.104;2023-04-09T03:37:04;102067.44;;;5.89;97.00
3132;BME280;62090;52.330;9.104;2023-04-09T03:39:34;102080.59;;;5.97;97.05
3132;BME280;62090;52.330;9.104;2023-04-09T03:42:03;102090.31;;;6.04;96.85
3132;BME280;62090;52.330;9.104;2023-04-09T03:44:45;102079.78;;;5.98;96.55
3132;BME280;62090;52.330;9.104;2023-04-09T03:47:23;102083.00;;;5.95;96.82
3132;BME280;62090;52.330;9.104;2023-04-09T03:49:54;102090.22;;;6.02;95.93
3132;BME280;62090;52.330;9.104;2023-04-09T03:52:26;102087.97;;;5.93;96.75
3132;BME280;62090;52.330;9.104;2023-04-09T03:55:04;102063.72;;;5.84;97.11
3132;BME280;62090;52.330;9.104;2023-04-09T03:57:35;102040.34;;;5.75;96.79
3132;BME280;62090;52.330;9.104;2023-04-09T04:00:12;102065.97;;;5.92;97.71
3132;BME280;62090;52.330;9.104;2023-04-09T04:03:10;102078.47;;;6.03;97.31
3132;BME280;62090;52.330;9.104;2023-04-09T04:05:59;102083.81;;;6.07;97.09
3132;BME280;62090;52.330;9.104;2023-04-09T04:08:41;102094.41;;;6.15;98.05
3132;BME280;62090;52.330;9.104;2023-04-09T04:11:11;102101.22;;;6.16;98.15
3132;BME280;62090;52.330;9.104;2023-04-09T04:13:41;102071.66;;;6.02;99.24
3132;BME280;62090;52.330;9.104;2023-04-09T04:16:13;102092.97;;;6.18;99.05
3132;BME280;62090;52.330;9.104;2023-04-09T04:18:43;102075.31;;;5.93;100.00
3132;BME280;62090;52.330;9.104;2023-04-09T04:21:14;102097.81;;;6.02;100.00
3132;BME280;62090;52.330;9.104;2023-04-09T04:23:53;102055.94;;;5.81;100.00
3132;BME280;62090;52.330;9.104;2023-04-09T04:26:26;102090.31;;;6.04;100.00
3132;BME280;62090;52.330;9.104;2023-04-09T04:28:56;102087.00;;;6.05;100.00
3132;BME280;62090;52.330;9.104;2023-04-09T04:31:51;102095.38;;;6.04;100.00
3132;BME280;62090;52.330;9.104;2023-04-09T04:34:24;102094.13;;;5.97;100.00
3132;BME280;62090;52.330;9.104;2023-04-09T04:37:02;102110.06;;;5.96;100.00
3132;BME280;62090;52.330;9.104;2023-04-09T04:39:32;102090.66;;;5.83;100.00
3132;BME280;62090;52.330;9.104;2023-04-09T04:42:08;102067.47;;;5.64;100.00
3132;BME280;62090;52.330;9.104;2023-04-09T04:44:38;102117.13;;;5.75;100.00
3132;BME280;62090;52.330;9.104;2023-04-09T04:47:17;102109.06;;;5.81;100.00
3132;BME280;62090;52.330;9.104;2023-04-09T04:49:47;102110.00;;;5.83;100.00
3132;BME280;62090;52.330;9.104;2023-04-09T04:52:17;102092.06;;;5.67;100.00
3132;BME280;62090;52.330;9.104;2023-04-09T04:54:50;102096.66;;;5.72;100.00
3132;BME280;62090;52.330;9.104;2023-04-09T04:57:22;102096.47;;;5.69;100.00
3132;BME280;62090;52.330;9.104;2023-04-09T04:59:52;102115.59;;;5.90;100.00
3132;BME280;62090;52.330;9.104;2023-04-09T05:02:25;102093.38;;;5.73;100.00
3132;BME280;62090;52.330;9.104;2023-04-09T05:05:14;102121.94;;;5.72;100.00
3132;BME280;62090;52.330;9.104;2023-04-09T05:07:49;102100.06;;;5.60;100.00
3132;BME280;62090;52.330;9.104;2023-04-09T05:10:20;102104.16;;;5.71;100.00
3132;BME280;62090;52.330;9.104;2023-04-09T05:12:50;102123.34;;;5.80;100.00
3132;BME280;62090;52.330;9.104;2023-04-09T05:15:30;102035.66;;;5.17;100.00
3132;BME280;62090;52.330;9.104;2023-04-09T05:18:02;102129.34;;;5.69;100.00
3132;BME280;62090;52.330;9.104;2023-04-09T05:20:33;102056.91;;;5.32;100.00
3132;BME280;62090;52.330;9.104;2023-04-09T05:23:06;102137.53;;;5.78;100.00
3132;BME280;62090;52.330;9.104;2023-04-09T05:25:47;102116.13;;;5.73;100.00
3132;BME280;62090;52.330;9.104;2023-04-09T05:28:25;102114.75;;;5.65;100.00
3132;BME280;62090;52.330;9.104;2023-04-09T05:31:05;102092.69;;;5.38;100.00
3132;BME280;62090;52.330;9.104;2023-04-09T05:33:47;102112.44;;;5.43;100.00
3132;BME280;62090;52.330;9.104;2023-04-09T05:36:23;102122.88;;;5.61;100.00
3132;BME280;62090;52.330;9.104;2023-04-09T05:38:53;102112.69;;;5.60;100.00
3132;BME280;62090;52.330;9.104;2023-04-09T05:41:23;102127.41;;;5.65;100.00
3132;BME280;62090;52.330;9.104;2023-04-09T05:44:11;102121.72;;;5.56;100.00
3132;BME280;62090;52.330;9.104;2023-04-09T05:46:42;102067.41;;;5.38;100.00
3132;BME280;62090;52.330;9.104;2023-04-09T05:49:18;102092.78;;;5.64;100.00
3132;BME280;62090;52.330;9.104;2023-04-09T05:51:51;102132.34;;;5.88;100.00
3132;BME280;62090;52.330;9.104;2023-04-09T05:54:25;102101.75;;;5.47;100.00
3132;BME280;62090;52.330;9.104;2023-04-09T05:56:55;102085.47;;;5.31;100.00
3132;BME280;62090;52.330;9.104;2023-04-09T05:59:25;102117.22;;;5.52;100.00
3132;BME280;62090;52.330;9.104;2023-04-09T06:01:55;102130.66;;;5.51;100.00
3132;BME280;62090;52.330;9.104;2023-04-09T06:04:27;102136.53;;;5.63;100.00
3132;BME280;62090;52.330;9.104;2023-04-09T06:06:59;102101.47;;;5.43;100.00
3132;BME280;62090;52.330;9.104;2023-04-09T06:09:28;102089.94;;;5.35;100.00
3132;BME280;62090;52.330;9.104;2023-04-09T06:12:00;102133.94;;;5.50;100.00
3132;BME280;62090;52.330;9.104;2023-04-09T06:14:30;102091.13;;;5.40;100.00
3132;BME280;62090;52.330;9.104;2023-04-09T06:17:00;102027.06;;;5.01;100.00
3132;BME280;62090;52.330;9.104;2023-04-09T06:19:33;102130.34;;;5.84;100.00
3132;BME280;62090;52.330;9.104;2023-04-09T06:22:03;102127.28;;;5.88;100.00
3132;BME280;62090;52.330;9.104;2023-04-09T06:24:33;102132.22;;;5.87;100.00
3132;BME280;62090;52.330;9.104;2023-04-09T06:27:03;102122.00;;;5.85;100.00
3132;BME280;62090;52.330;9.104;2023-04-09T06:29:33;102128.81;;;5.86;100.00
3132;BME280;62090;52.330;9.104;2023-04-09T06:32:04;102111.56;;;5.81;100.00
3132;BME280;62090;52.330;9.104;2023-04-09T06:34:36;102134.38;;;5.94;100.00
3132;BME280;62090;52.330;9.104;2023-04-09T06:37:06;102133.44;;;5.92;100.00
3132;BME280;62090;52.330;9.104;2023-04-09T06:39:36;102102.50;;;5.71;100.00
3132;BME280;62090;52.330;9.104;2023-04-09T06:42:19;102101.88;;;5.62;100.00
3132;BME280;62090;52.330;9.104;2023-04-09T06:44:56;102150.19;;;5.78;100.00
3132;BME280;62090;52.330;9.104;2023-04-09T06:47:26;102152.47;;;5.87;100.00
3132;BME280;62090;52.330;9.104;2023-04-09T06:49:58;102111.66;;;5.69;100.00
3132;BME280;62090;52.330;9.104;2023-04-09T06:52:28;102121.78;;;5.82;100.00
3132;BME280;62090;52.330;9.104;2023-04-09T06:54:58;102152.13;;;6.07;100.00
3132;BME280;62090;52.330;9.104;2023-04-09T06:57:28;102135.78;;;6.02;100.00
3132;BME280;62090;52.330;9.104;2023-04-09T06:59:57;102136.47;;;6.26;100.00
3132;BME280;62090;52.330;9.104;2023-04-09T07:02:27;102107.16;;;6.16;100.00
3132;BME280;62090;52.330;9.104;2023-04-09T07:05:00;102153.19;;;6.63;100.00
3132;BME280;62090;52.330;9.104;2023-04-09T07:07:30;102096.72;;;6.25;100.00
3132;BME280;62090;52.330;9.104;2023-04-09T07:10:01;102153.69;;;6.58;100.00
3132;BME280;62090;52.330;9.104;2023-04-09T07:12:33;102131.50;;;6.54;100.00
3132;BME280;62090;52.330;9.104;2023-04-09T07:15:04;102060.06;;;6.18;100.00
3132;BME280;62090;52.330;9.104;2023-04-09T07:17:35;102151.66;;;6.65;100.00
3132;BME280;62090;52.330;9.104;2023-04-09T07:20:08;102105.59;;;6.45;100.00
3132;BME280;62090;52.330;9.104;2023-04-09T07:22:38;102149.13;;;6.65;100.00
3132;BME280;62090;52.330;9.104;2023-04-09T07:25:08;102145.50;;;6.62;100.00
3132;BME280;62090;52.330;9.104;2023-04-09T07:27:38;102142.72;;;6.44;100.00
3132;BME280;62090;52.330;9.104;2023-04-09T07:30:09;102142.28;;;6.51;100.00
3132;BME280;62090;52.330;9.104;2023-04-09T07:32:39;102144.25;;;6.55;100.00
3132;BME280;62090;52.330;9.104;2023-04-09T07:35:11;102107.06;;;6.54;100.00
3132;BME280;62090;52.330;9.104;2023-04-09T07:37:41;102156.19;;;6.97;100.00
3132;BME280;62090;52.330;9.104;2023-04-09T07:40:11;102161.91;;;6.95;100.00
3132;BME280;62090;52.330;9.104;2023-04-09T07:42:41;102139.34;;;6.85;100.00
3132;BME280;62090;52.330;9.104;2023-04-09T07:45:11;102160.59;;;7.14;100.00
3132;BME280;62090;52.330;9.104;2023-04-09T07:47:41;102150.16;;;7.23;100.00
3132;BME280;62090;52.330;9.104;2023-04-09T07:50:13;102133.56;;;7.28;100.00
3132;BME280;62090;52.330;9.104;2023-04-09T07:52:43;102080.22;;;6.99;100.00
3132;BME280;62090;52.330;9.104;2023-04-09T07:55:13;102156.44;;;7.30;100.00
3132;BME280;62090;52.330;9.104;2023-04-09T07:57:44;102155.38;;;7.39;100.00
3132;BME280;62090;52.330;9.104;2023-04-09T08:00:15;102152.50;;;7.48;100.00
3132;BME280;62090;52.330;9.104;2023-04-09T08:02:45;102163.53;;;7.63;100.00
3132;BME280;62090;52.330;9.104;2023-04-09T08:05:18;102159.88;;;7.73;100.00
3132;BME280;62090;52.330;9.104;2023-04-09T08:07:49;102126.19;;;7.75;100.00
3132;BME280;62090;52.330;9.104;2023-04-09T08:10:19;102158.06;;;7.99;100.00
3132;BME280;62090;52.330;9.104;2023-04-09T08:12:49;102172.59;;;8.17;99.53
3132;BME280;62090;52.330;9.104;2023-04-09T08:15:19;102171.53;;;8.28;99.85
3132;BME280;62090;52.330;9.104;2023-04-09T08:17:49;102148.25;;;8.20;99.74
3132;BME280;62090;52.330;9.104;2023-04-09T08:20:21;102158.69;;;8.39;99.15
3132;BME280;62090;52.330;9.104;2023-04-09T08:22:51;102159.97;;;8.47;99.00
3132;BME280;62090;52.330;9.104;2023-04-09T08:25:21;102161.00;;;8.66;98.17
3132;BME280;62090;52.330;9.104;2023-04-09T08:27:51;102045.53;;;8.15;97.71
3132;BME280;62090;52.330;9.104;2023-04-09T08:30:21;102100.00;;;8.66;97.56
3132;BME280;62090;52.330;9.104;2023-04-09T08:32:50;102164.91;;;9.22;97.33
3132;BME280;62090;52.330;9.104;2023-04-09T08:35:23;102135.97;;;9.20;96.22
3132;BME280;62090;52.330;9.104;2023-04-09T08:37:54;102127.88;;;9.27;96.24
3132;BME280;62090;52.330;9.104;2023-04-09T08:40:24;102150.66;;;9.58;96.31
3132;BME280;62090;52.330;9.104;2023-04-09T08:42:55;102121.25;;;9.47;95.77
3132;BME280;62090;52.330;9.104;2023-04-09T08:45:25;102152.16;;;9.71;95.07
3132;BME280;62090;52.330;9.104;2023-04-09T08:47:55;102113.28;;;9.57;95.78
3132;BME280;62090;52.330;9.104;2023-04-09T08:50:30;102073.28;;;9.55;95.05
3132;BME280;62090;52.330;9.104;2023-04-09T08:53:02;102106.47;;;9.74;95.28
3132;BME280;62090;52.330;9.104;2023-04-09T08:55:33;102100.13;;;9.82;94.17
3132;BME280;62090;52.330;9.104;2023-04-09T08:58:03;102109.69;;;9.70;94.63
3132;BME280;62090;52.330;9.104;2023-04-09T09:00:35;102087.91;;;9.59;95.31
3132;BME280;62090;52.330;9.104;2023-04-09T09:03:08;102168.88;;;10.00;94.96
3132;BME280;62090;52.330;9.104;2023-04-09T09:05:44;102119.91;;;9.88;95.28
3132;BME280;62090;52.330;9.104;2023-04-09T09:08:22;102091.94;;;9.89;93.24
3132;BME280;62090;52.330;9.104;2023-04-09T09:10:53;102140.75;;;10.14;93.31
3132;BME280;62090;52.330;9.104;2023-04-09T09:13:24;102094.00;;;9.96;93.06
3132;BME280;62090;52.330;9.104;2023-04-09T09:16:11;102154.41;;;10.33;93.71
3132;BME280;62090;52.330;9.104;2023-04-09T09:18:43;102140.88;;;10.34;94.25
3132;BME280;62090;52.330;9.104;2023-04-09T09:21:16;102145.00;;;10.32;93.52
3132;BME280;62090;52.330;9.104;2023-04-09T09:23:47;102135.63;;;10.31;93.96
3132;BME280;62090;52.330;9.104;2023-04-09T09:26:18;102082.25;;;10.16;94.12
3132;BME280;62090;52.330;9.104;2023-04-09T09:28:49;102142.94;;;10.78;93.98
3132;BME280;62090;52.330;9.104;2023-04-09T09:31:21;102142.72;;;11.10;91.82
3132;BME280;62090;52.330;9.104;2023-04-09T09:33:52;102081.69;;;10.95;90.26
3132;BME280;62090;52.330;9.104;2023-04-09T09:36:32;102094.91;;;11.06;89.17
3132;BME280;62090;52.330;9.104;2023-04-09T09:39:03;102089.41;;;10.97;90.06
3132;BME280;62090;52.330;9.104;2023-04-09T09:41:36;102142.81;;;11.31;89.68
3132;BME280;62090;52.330;9.104;2023-04-09T09:44:08;102097.94;;;11.17;88.78
3132;BME280;62090;52.330;9.104;2023-04-09T09:46:39;102139.16;;;11.45;89.02
3132;BME280;62090;52.330;9.104;2023-04-09T09:49:09;102124.72;;;11.46;88.94
3132;BME280;62090;52.330;9.104;2023-04-09T09:51:43;102048.59;;;10.97;89.74
3132;BME280;62090;52.330;9.104;2023-04-09T09:54:16;102133.25;;;11.46;90.62
3132;BME280;62090;52.330;9.104;2023-04-09T09:56:54;102039.81;;;11.10;89.76
3132;BME280;62090;52.330;9.104;2023-04-09T09:59:36;102103.53;;;11.48;89.83
3132;BME280;62090;52.330;9.104;2023-04-09T10:02:14;102045.09;;;11.14;90.12
3132;BME280;62090;52.330;9.104;2023-04-09T10:04:49;102053.47;;;11.12;89.50
3132;BME280;62090;52.330;9.104;2023-04-09T10:07:23;102128.25;;;11.68;89.78
3132;BME280;62090;52.330;9.104;2023-04-09T10:09:55;102115.22;;;11.62;88.56
3132;BME280;62090;52.330;9.104;2023-04-09T10:12:27;102042.63;;;10.96;89.88
3132;BME280;62090;52.330;9.104;2023-04-09T10:15:05;102034.03;;;11.14;89.48
3132;BME280;62090;52.330;9.104;2023-04-09T10:17:36;102036.34;;;11.28;89.41
3132;BME280;62090;52.330;9.104;2023-04-09T10:20:13;102039.97;;;11.33;90.37
3132;BME280;62090;52.330;9.104;2023-04-09T10:22:52;102098.09;;;11.79;88.68
3132;BME280;62090;52.330;9.104;2023-04-09T10:25:28;102103.81;;;11.73;89.40
3132;BME280;62090;52.330;9.104;2023-04-09T10:27:58;102082.94;;;11.64;89.37
3132;BME280;62090;52.330;9.104;2023-04-09T10:30:32;102030.56;;;11.32;89.91
3132;BME280;62090;52.330;9.104;2023-04-09T10:33:11;102109.09;;;11.59;90.38
3132;BME280;62090;52.330;9.104;2023-04-09T10:35:45;102096.28;;;11.38;90.04
3132;BME280;62090;52.330;9.104;2023-04-09T10:38:32;102077.25;;;11.30;90.39
3132;BME280;62090;52.330;9.104;2023-04-09T10:41:10;102055.09;;;11.29;91.28
3132;BME280;62090;52.330;9.104;2023-04-09T10:43:42;102036.50;;;11.31;90.42
3132;BME280;62090;52.330;9.104;2023-04-09T10:46:25;102007.38;;;11.07;89.90
3132;BME280;62090;52.330;9.104;2023-04-09T10:49:09;102092.88;;;11.57;90.43
3132;BME280;62090;52.330;9.104;2023-04-09T10:51:40;102090.50;;;11.61;90.54
3132;BME280;62090;52.330;9.104;2023-04-09T10:54:39;102095.06;;;11.68;90.39
3132;BME280;62090;52.330;9.104;2023-04-09T10:57:20;102060.28;;;11.51;90.70
3132;BME280;62090;52.330;9.104;2023-04-09T10:59:53;102062.41;;;11.61;89.80
3132;BME280;62090;52.330;9.104;2023-04-09T11:02:57;102090.72;;;11.87;89.29
3132;BME280;62090;52.330;9.104;2023-04-09T11:05:35;102064.41;;;11.68;90.60
3132;BME280;62090;52.330;9.104;2023-04-09T11:08:08;102028.41;;;11.62;90.71
3132;BME280;62090;52.330;9.104;2023-04-09T11:10:43;102014.09;;;11.66;88.18
3132;BME280;62090;52.330;9.104;2023-04-09T11:13:18;102087.25;;;12.27;88.50
3132;BME280;62090;52.330;9.104;2023-04-09T11:15:48;102016.53;;;12.06;87.89
3132;BME280;62090;52.330;9.104;2023-04-09T11:18:22;102019.09;;;12.06;87.25
3132;BME280;62090;52.330;9.104;2023-04-09T11:20:54;102064.41;;;12.54;87.59
3132;BME280;62090;52.330;9.104;2023-04-09T11:23:26;102036.19;;;12.51;85.26
3132;BME280;62090;52.330;9.104;2023-04-09T11:25:59;102008.97;;;12.53;85.11
3132;BME280;62090;52.330;9.104;2023-04-09T11:28:33;102045.16;;;12.64;83.50
3132;BME280;62090;52.330;9.104;2023-04-09T11:31:04;102063.31;;;12.70;83.34
3132;BME280;62090;52.330;9.104;2023-04-09T11:33:35;102040.50;;;12.52;82.89
3132;BME280;62090;52.330;9.104;2023-04-09T11:36:07;102040.81;;;12.61;83.51
3132;BME280;62090;52.330;9.104;2023-04-09T11:38:38;102045.53;;;12.73;80.70
3132;BME280;62090;52.330;9.104;2023-04-09T11:41:10;102049.22;;;12.81;78.97
3132;BME280;62090;52.330;9.104;2023-04-09T11:43:41;102015.91;;;12.56;80.86
3132;BME280;62090;52.330;9.104;2023-04-09T11:46:11;102056.81;;;12.80;79.11
3132;BME280;62090;52.330;9.104;2023-04-09T11:48:42;102035.94;;;12.91;78.54
3132;BME280;62090;52.330;9.104;2023-04-09T11:51:12;102057.34;;;13.17;78.39
3132;BME280;62090;52.330;9.104;2023-04-09T11:53:43;102044.69;;;13.20;78.31
3132;BME280;62090;52.330;9.104;2023-04-09T11:56:16;101960.84;;;12.65;76.85
3132;BME280;62090;52.330;9.104;2023-04-09T11:58:48;101990.94;;;12.73;74.93
3132;BME280;62090;52.330;9.104;2023-04-09T12:01:20;101962.69;;;12.69;75.36
3132;BME280;62090;52.330;9.104;2023-04-09T12:04:26;101886.31;;;12.07;74.19
3132;BME280;62090;52.330;9.104;2023-04-09T12:07:20;102061.19;;;13.06;73.76
3132;BME280;62090;52.330;9.104;2023-04-09T12:10:32;101825.47;;;11.73;73.98
3132;BME280;62090;52.330;9.104;2023-04-09T12:14:14;101986.81;;;12.52;73.55
3132;BME280;62090;52.330;9.104;2023-04-09T12:18:12;101756.06;;;11.39;67.27
3132;BME280;62090;52.330;9.104;2023-04-09T12:22:05;102029.19;;;13.17;65.91
3132;BME280;62090;52.330;9.104;2023-04-09T12:25:43;101889.91;;;12.36;65.53
3132;BME280;62090;52.330;9.104;2023-04-09T12:29:28;101826.84;;;11.88;65.08
3132;BME280;62090;52.330;9.104;2023-04-09T12:34:01;101821.69;;;12.10;65.46
3132;BME280;62090;52.330;9.104;2023-04-09T12:41:22;101811.94;;;12.49;65.97
3132;BME280;62090;52.330;9.104;2023-04-09T12:45:05;101933.34;;;12.84;68.32
3132;BME280;62090;52.330;9.104;2023-04-09T12:51:48;101959.31;;;12.94;70.28
3132;BME280;62090;52.330;9.104;2023-04-09T12:54:19;102024.19;;;13.20;71.18
3132;BME280;62090;52.330;9.104;2023-04-09T12:56:51;101966.81;;;12.90;71.22
3132;BME280;62090;52.330;9.104;2023-04-09T12:59:23;101953.09;;;12.88;70.53
3132;BME280;62090;52.330;9.104;2023-04-09T13:02:07;101974.00;;;13.00;70.88
3132;BME280;62090;52.330;9.104;2023-04-09T13:04:39;101974.91;;;13.02;68.68
3132;BME280;62090;52.330;9.104;2023-04-09T13:07:12;101955.44;;;13.07;69.40
3132;BME280;62090;52.330;9.104;2023-04-09T13:09:44;101957.50;;;12.92;70.12
3132;BME280;62090;52.330;9.104;2023-04-09T13:12:16;102008.06;;;13.23;71.47
3132;BME280;62090;52.330;9.104;2023-04-09T13:14:47;102004.53;;;13.19;71.31
3132;BME280;62090;52.330;9.104;2023-04-09T13:17:20;102037.59;;;13.37;71.10
3132;BME280;62090;52.330;9.104;2023-04-09T13:19:50;101986.78;;;13.00;71.19
3132;BME280;62090;52.330;9.104;2023-04-09T13:22:21;102032.81;;;13.47;71.90
3132;BME280;62090;52.330;9.104;2023-04-09T13:24:53;101964.53;;;13.21;72.01
3132;BME280;62090;52.330;9.104;2023-04-09T13:27:25;101976.38;;;13.19;71.40
3132;BME280;62090;52.330;9.104;2023-04-09T13:30:08;101961.16;;;12.98;71.01
3132;BME280;62090;52.330;9.104;2023-04-09T13:52:33;102015.81;;;13.24;70.27
3132;BME280;62090;52.330;9.104;2023-04-09T13:55:04;102018.44;;;13.27;70.31
3132;BME280;62090;52.330;9.104;2023-04-09T13:57:34;101956.38;;;13.09;69.87
3132;BME280;62090;52.330;9.104;2023-04-09T14:00:06;101944.16;;;13.00;69.88
3132;BME280;62090;52.330;9.104;2023-04-09T14:02:38;101934.16;;;12.83;69.84
3132;BME280;62090;52.330;9.104;2023-04-09T14:05:08;101786.72;;;12.09;70.18
3132;BME280;62090;52.330;9.104;2023-04-09T14:07:41;101922.41;;;12.88;70.48
3132;BME280;62090;52.330;9.104;2023-04-09T14:10:11;101884.63;;;12.81;70.23
3132;BME280;62090;52.330;9.104;2023-04-09T18:15:10;101839.28;;;14.15;61.65
3132;BME280;62090;52.330;9.104;2023-04-09T18:17:42;101809.66;;;13.35;64.32